Time;durP1;ratioP1;P1;durP2;ratioP2;P2;SDS_P1;SDS_P2;PMS_P1;PMS_P2;Temp;Humidity;BMP_temperature;BMP_pressure;BME280_temperature;BME280_humidity;BME280_pressure;Samples;Min_cycle;Max_cycle;Signal;HPM_P1;HPM_P2
2023/01/26 00:02:04;;;;;;;54.10;24.63;;;8.20;53.80;;;;;;4985307;28;20455;-78
2023/01/26 00:04:32;;;;;;;51.50;23.60;;;8.10;52.90;;;;;;4988259;28;20456;-78
2023/01/26 00:07:00;;;;;;;57.50;24.00;;;8.30;53.60;;;;;;4986452;28;20464;-78
2023/01/26 00:09:28;;;;;;;53.80;24.00;;;8.30;53.00;;;;;;4985430;28;20484;-79
2023/01/26 00:11:56;;;;;;;56.83;23.80;;;8.20;52.90;;;;;;4983639;28;20479;-80
2023/01/26 00:14:23;;;;;;;53.60;25.03;;;8.20;52.70;;;;;;4988330;28;20468;-79
2023/01/26 00:16:53;;;;;;;51.80;23.10;;;8.30;52.90;;;;;;4987061;28;20481;-78
2023/01/26 00:19:23;;;;;;;53.37;23.60;;;8.20;53.20;;;;;;4985884;28;20469;-79
2023/01/26 00:21:51;;;;;;;55.40;23.97;;;8.20;53.70;;;;;;4986744;28;20467;-78
2023/01/26 00:24:19;;;;;;;54.00;23.33;;;8.20;53.70;;;;;;4987585;28;20461;-78
2023/01/26 00:26:47;;;;;;;48.37;21.57;;;8.10;53.50;;;;;;4987833;28;20492;-78
2023/01/26 00:29:15;;;;;;;51.07;23.80;;;8.00;53.60;;;;;;4986109;28;20462;-79
2023/01/26 00:31:43;;;;;;;53.67;23.50;;;8.10;53.70;;;;;;4990145;28;20453;-79
2023/01/26 00:34:11;;;;;;;51.57;21.93;;;8.10;53.90;;;;;;4986247;28;20519;-78
2023/01/26 00:36:41;;;;;;;50.60;22.80;;;8.20;53.40;;;;;;4986893;28;20477;-78
2023/01/26 00:39:09;;;;;;;53.40;23.80;;;8.20;53.50;;;;;;4984323;28;20500;-79
2023/01/26 00:44:22;;;;;;;55.43;24.00;;;8.20;53.80;;;;;;4988414;28;20468;-78
2023/01/26 00:46:50;;;;;;;51.53;22.67;;;8.20;53.70;;;;;;4988484;28;20453;-77
2023/01/26 00:49:18;;;;;;;48.93;21.50;;;8.20;53.90;;;;;;4987388;28;20485;-78
2023/01/26 00:51:47;;;;;;;48.33;22.07;;;8.20;53.80;;;;;;4988258;28;20449;-79
2023/01/26 00:54:15;;;;;;;50.00;22.63;;;8.30;54.40;;;;;;4991517;28;20466;-77
2023/01/26 00:56:43;;;;;;;49.37;22.70;;;8.30;54.00;;;;;;4988826;28;20516;-79
2023/01/26 00:59:12;;;;;;;53.63;23.40;;;8.40;53.90;;;;;;4986456;28;20469;-78
2023/01/26 01:01:39;;;;;;;50.67;23.10;;;8.30;53.30;;;;;;4989240;28;20457;-78
2023/01/26 01:04:08;;;;;;;50.57;22.70;;;8.30;53.60;;;;;;4982601;28;20481;-79
2023/01/26 01:06:36;;;;;;;51.53;21.90;;;8.30;53.70;;;;;;4989867;28;20461;-77
2023/01/26 01:09:05;;;;;;;50.30;22.87;;;8.20;54.10;;;;;;4986557;28;20468;-77
2023/01/26 01:11:34;;;;;;;45.27;20.70;;;8.30;55.00;;;;;;4990399;28;20477;-77
2023/01/26 01:14:02;;;;;;;45.07;21.07;;;8.30;54.60;;;;;;4989926;28;20464;-77
2023/01/26 01:16:30;;;;;;;52.00;23.60;;;8.40;54.50;;;;;;4991172;28;20484;-78
2023/01/26 01:18:58;;;;;;;52.63;23.47;;;8.40;53.60;;;;;;4986841;28;20457;-78
2023/01/26 01:21:26;;;;;;;51.77;23.00;;;8.30;53.60;;;;;;4986124;28;20492;-78
2023/01/26 01:23:54;;;;;;;48.67;22.30;;;8.30;53.80;;;;;;4987477;28;20461;-79
2023/01/26 01:26:24;;;;;;;51.63;22.60;;;8.20;54.10;;;;;;4988014;28;20562;-78
2023/01/26 01:28:53;;;;;;;46.53;22.23;;;8.20;54.10;;;;;;4986533;28;20453;-78
2023/01/26 01:31:22;;;;;;;47.37;20.80;;;8.10;54.00;;;;;;4987117;28;20492;-79
2023/01/26 01:33:50;;;;;;;50.50;22.80;;;8.10;54.70;;;;;;4991216;28;20450;-78
2023/01/26 01:36:18;;;;;;;51.77;22.50;;;8.10;54.30;;;;;;4987382;28;20481;-79
2023/01/26 01:38:46;;;;;;;51.60;22.27;;;8.20;54.50;;;;;;4989853;28;20459;-79
2023/01/26 01:41:15;;;;;;;49.30;22.00;;;8.30;54.40;;;;;;4987295;28;20477;-78
2023/01/26 01:43:44;;;;;;;48.00;21.20;;;8.40;54.30;;;;;;4991378;28;20461;-78
2023/01/26 01:46:15;;;;;;;51.83;22.97;;;8.40;54.10;;;;;;4987237;28;20453;-78
2023/01/26 01:48:47;;;;;;;49.40;22.40;;;8.40;54.00;;;;;;4989362;28;20453;-78
2023/01/26 01:51:18;;;;;;;47.10;21.87;;;8.40;53.80;;;;;;4984929;28;20490;-77
2023/01/26 01:53:47;;;;;;;49.23;21.33;;;8.20;53.70;;;;;;4990087;28;20532;-79
2023/01/26 01:56:20;;;;;;;51.40;21.90;;;8.20;54.30;;;;;;4993248;28;20480;-79
2023/01/26 01:58:51;;;;;;;50.70;21.70;;;8.20;54.00;;;;;;4993960;28;20476;-79
2023/01/26 02:01:19;;;;;;;49.23;21.63;;;8.30;54.20;;;;;;4990016;28;20477;-79
2023/01/26 02:03:47;;;;;;;48.73;21.60;;;8.20;54.00;;;;;;4988405;28;20981;-79
2023/01/26 02:06:16;;;;;;;55.33;23.10;;;8.20;54.30;;;;;;4994541;28;20456;-80
2023/01/26 02:08:46;;;;;;;49.70;22.10;;;8.20;54.20;;;;;;4991609;28;20449;-78
2023/01/26 02:11:14;;;;;;;52.90;22.67;;;8.20;54.50;;;;;;4986296;28;20477;-78
2023/01/26 02:13:43;;;;;;;51.73;22.13;;;8.20;54.40;;;;;;4991067;28;20465;-79
2023/01/26 02:16:12;;;;;;;46.30;21.27;;;8.20;54.20;;;;;;4992558;28;20481;-78
2023/01/26 02:18:40;;;;;;;46.47;21.83;;;8.20;54.40;;;;;;4992813;28;20463;-80
2023/01/26 02:21:10;;;;;;;47.30;20.97;;;8.20;54.40;;;;;;4993533;28;20477;-79
2023/01/26 02:23:50;;;;;;;43.33;20.50;;;8.30;55.20;;;;;;4992873;28;20461;-79
2023/01/26 02:26:20;;;;;;;49.43;21.13;;;8.40;54.20;;;;;;4991088;28;20548;-79
2023/01/26 02:28:48;;;;;;;47.60;21.10;;;8.50;54.90;;;;;;4993360;28;20453;-80
2023/01/26 02:31:16;;;;;;;47.00;20.50;;;8.40;54.40;;;;;;4989397;28;20480;-79
2023/01/26 02:33:45;;;;;;;46.27;20.80;;;8.30;54.00;;;;;;4994249;28;20454;-80
2023/01/26 02:36:18;;;;;;;47.43;20.40;;;8.30;54.70;;;;;;4993945;28;20539;-80
2023/01/26 02:38:49;;;;;;;41.30;19.50;;;8.40;54.70;;;;;;4991451;28;20461;-80
2023/01/26 02:42:37;;;;;;;48.40;21.17;;;8.30;54.60;;;;;;4993248;28;20473;-79
2023/01/26 02:44:07;;;;;;;43.63;19.57;;;8.30;54.60;;;;;;4993201;28;20457;-80
2023/01/26 02:46:35;;;;;;;48.07;21.13;;;8.30;55.20;;;;;;4993864;28;20461;-79
2023/01/26 02:51:49;;;;;;;42.10;18.70;;;8.50;54.70;;;;;;4991256;28;20453;-80
2023/01/26 02:57:00;;;;;;;42.03;20.07;;;8.40;54.60;;;;;;4985900;28;20477;-80
2023/01/26 02:59:28;;;;;;;42.77;20.00;;;8.30;54.80;;;;;;4984699;28;21275;-79
2023/01/26 03:01:56;;;;;;;39.47;19.10;;;8.40;55.00;;;;;;4984473;28;20464;-79
2023/01/26 03:04:25;;;;;;;39.10;17.60;;;8.40;54.50;;;;;;4978678;28;20485;-80
2023/01/26 03:06:52;;;;;;;37.50;18.00;;;8.40;54.60;;;;;;4987068;28;20480;-78
2023/01/26 03:09:20;;;;;;;41.47;18.23;;;8.50;54.80;;;;;;4992856;28;20460;-80
2023/01/26 03:11:48;;;;;;;40.47;18.57;;;8.40;54.60;;;;;;4993966;28;20500;-80
2023/01/26 03:14:18;;;;;;;38.87;18.70;;;8.40;54.50;;;;;;4992960;28;20462;-80
2023/01/26 03:16:46;;;;;;;42.50;20.17;;;8.40;54.70;;;;;;4989701;28;20469;-79
2023/01/26 03:27:34;;;;;;;37.27;16.57;;;8.30;54.70;;;;;;4992622;28;20480;-79
2023/01/26 03:30:04;;;;;;;38.93;18.53;;;8.30;55.00;;;;;;4990840;28;20473;-78
2023/01/26 03:32:31;;;;;;;42.63;18.57;;;8.30;55.20;;;;;;4992935;28;20488;-80
2023/01/26 03:34:59;;;;;;;38.47;18.10;;;8.40;55.00;;;;;;4990991;28;20977;-79
2023/01/26 03:37:33;;;;;;;41.27;19.10;;;8.30;55.30;;;;;;4988383;28;20481;-79
2023/01/26 03:56:36;;;;;;;40.63;18.67;;;8.20;55.20;;;;;;4991324;28;20477;-79
2023/01/26 03:59:07;;;;;;;35.60;17.60;;;8.30;55.10;;;;;;4991191;28;20467;-78
2023/01/26 04:01:37;;;;;;;38.70;17.20;;;8.30;55.30;;;;;;4992266;28;20455;-79
2023/01/26 04:09:38;;;;;;;37.87;17.07;;;8.40;55.00;;;;;;4993136;28;20477;-79
2023/01/26 04:12:09;;;;;;;35.70;16.37;;;8.40;55.10;;;;;;4991993;28;20477;-79
2023/01/26 04:22:55;;;;;;;33.00;14.93;;;8.30;55.30;;;;;;4991371;28;20464;-80
2023/01/26 04:25:23;;;;;;;30.97;14.40;;;8.30;55.20;;;;;;4988821;28;20461;-80
2023/01/26 04:27:51;;;;;;;28.73;13.70;;;8.30;55.30;;;;;;4992863;28;20453;-80
2023/01/26 04:30:20;;;;;;;37.93;13.90;;;8.30;55.30;;;;;;4994892;28;20481;-79
2023/01/26 04:32:50;;;;;;;29.13;13.80;;;8.30;55.60;;;;;;4994919;28;20468;-79
2023/01/26 04:35:18;;;;;;;27.67;12.80;;;8.20;55.60;;;;;;4996086;28;20457;-79
2023/01/26 04:37:46;;;;;;;30.10;13.73;;;8.30;56.00;;;;;;4994968;28;20473;-78
2023/01/26 04:40:14;;;;;;;28.73;13.30;;;8.30;55.40;;;;;;4993733;28;20484;-80
2023/01/26 04:42:42;;;;;;;31.33;14.20;;;8.30;55.90;;;;;;4992903;28;20484;-79
2023/01/26 04:45:10;;;;;;;31.47;14.10;;;8.30;55.60;;;;;;4996326;28;20468;-81
2023/01/26 04:47:39;;;;;;;27.50;13.70;;;8.40;55.80;;;;;;4995279;28;20453;-78
2023/01/26 04:50:10;;;;;;;26.47;12.53;;;8.30;55.40;;;;;;4994733;28;20492;-79
2023/01/26 04:52:38;;;;;;;30.00;12.47;;;8.30;55.80;;;;;;4995916;28;20453;-79
2023/01/26 04:55:07;;;;;;;25.87;12.80;;;8.40;55.50;;;;;;4994742;28;21000;-79
2023/01/26 04:57:35;;;;;;;26.77;13.00;;;8.30;55.30;;;;;;4994915;28;20489;-80
2023/01/26 05:00:03;;;;;;;25.83;12.83;;;8.30;55.60;;;;;;4995353;28;20474;-80
2023/01/26 05:02:31;;;;;;;25.70;12.40;;;8.40;55.90;;;;;;4992664;28;20460;-80
2023/01/26 05:04:59;;;;;;;24.53;11.50;;;8.40;55.60;;;;;;4990896;28;20568;-80
2023/01/26 05:07:29;;;;;;;25.80;12.10;;;8.40;55.50;;;;;;4995420;28;20453;-79
2023/01/26 05:09:57;;;;;;;23.67;12.40;;;8.50;55.60;;;;;;4993171;28;20490;-80
2023/01/26 05:12:34;;;;;;;27.33;12.60;;;8.40;55.50;;;;;;4992205;28;20477;-79
2023/01/26 05:15:02;;;;;;;23.40;11.93;;;8.40;55.50;;;;;;4989655;28;20531;-79
2023/01/26 05:17:30;;;;;;;26.67;12.50;;;8.30;55.50;;;;;;4994061;28;20491;-80
2023/01/26 05:19:58;;;;;;;25.47;11.63;;;8.40;55.90;;;;;;4993876;28;20477;-80
2023/01/26 05:22:27;;;;;;;22.27;11.03;;;8.40;55.90;;;;;;4991365;28;20456;-80
2023/01/26 05:24:56;;;;;;;25.23;11.60;;;8.40;55.90;;;;;;4992540;28;20461;-80
2023/01/26 05:27:24;;;;;;;21.97;11.30;;;8.40;55.80;;;;;;4993936;28;20476;-80
2023/01/26 05:29:52;;;;;;;23.13;11.40;;;8.40;55.80;;;;;;4993473;28;20473;-80
2023/01/26 05:32:21;;;;;;;22.20;11.10;;;8.40;55.90;;;;;;4994691;28;20458;-79
2023/01/26 05:34:49;;;;;;;27.43;12.27;;;8.40;55.90;;;;;;4993977;28;20934;-80
2023/01/26 05:37:16;;;;;;;24.77;11.43;;;8.40;55.90;;;;;;4994736;28;20457;-80
2023/01/26 05:39:45;;;;;;;25.57;12.10;;;8.50;56.30;;;;;;4994055;28;20473;-79
2023/01/26 05:42:14;;;;;;;23.67;11.47;;;8.50;56.50;;;;;;4992606;28;20477;-80
2023/01/26 05:44:42;;;;;;;26.20;11.37;;;8.80;55.70;;;;;;4995049;28;20461;-79
2023/01/26 05:47:10;;;;;;;23.50;11.40;;;8.70;55.20;;;;;;4994635;28;20457;-80
2023/01/26 05:49:41;;;;;;;19.20;10.77;;;8.60;55.50;;;;;;4994046;28;20477;-79
2023/01/26 05:52:10;;;;;;;22.87;11.43;;;8.70;56.00;;;;;;4994179;28;20461;-79
2023/01/26 05:54:38;;;;;;;21.23;10.33;;;8.60;55.70;;;;;;4995105;28;20453;-79
2023/01/26 05:57:06;;;;;;;21.97;11.53;;;8.70;55.70;;;;;;4993705;28;20477;-80
2023/01/26 05:59:36;;;;;;;25.30;11.53;;;8.70;55.40;;;;;;4994645;28;20556;-80
2023/01/26 06:02:03;;;;;;;19.80;10.30;;;8.70;55.80;;;;;;4992588;28;20491;-80
2023/01/26 06:04:31;;;;;;;21.23;10.73;;;8.70;55.60;;;;;;4989597;28;20461;-79
2023/01/26 06:07:00;;;;;;;17.13;9.90;;;8.60;55.50;;;;;;4997176;28;20521;-79
2023/01/26 06:09:28;;;;;;;20.97;10.40;;;8.60;56.10;;;;;;4990900;28;20457;-81
2023/01/26 06:11:56;;;;;;;23.77;11.10;;;8.60;55.70;;;;;;4990941;28;20484;-80
2023/01/26 06:14:24;;;;;;;21.53;10.63;;;8.60;56.10;;;;;;4994294;28;20468;-79
2023/01/26 06:16:55;;;;;;;21.57;11.10;;;8.50;56.10;;;;;;4993396;28;20451;-80
2023/01/26 06:19:23;;;;;;;19.97;10.30;;;8.60;56.20;;;;;;4993056;28;20477;-79
2023/01/26 06:21:52;;;;;;;21.23;10.40;;;8.50;55.80;;;;;;4992244;28;20457;-80
2023/01/26 06:24:21;;;;;;;20.43;10.40;;;8.60;56.10;;;;;;4993600;28;20463;-80
2023/01/26 06:26:49;;;;;;;20.10;10.67;;;8.60;56.30;;;;;;4992356;28;20477;-79
2023/01/26 06:29:16;;;;;;;25.33;11.27;;;8.60;55.90;;;;;;4987057;28;20452;-79
2023/01/26 06:31:45;;;;;;;22.90;11.40;;;8.60;56.00;;;;;;4992909;28;20460;-79
2023/01/26 06:34:14;;;;;;;22.73;11.40;;;8.70;56.50;;;;;;4993554;28;20473;-78
2023/01/26 06:36:42;;;;;;;27.00;12.33;;;8.70;57.00;;;;;;4995567;28;20457;-79
2023/01/26 06:39:11;;;;;;;25.00;12.00;;;8.80;56.40;;;;;;4992624;28;20477;-78
2023/01/26 06:41:39;;;;;;;23.20;11.53;;;8.80;56.00;;;;;;4991869;28;20477;-79
2023/01/26 06:44:08;;;;;;;23.67;11.97;;;8.80;55.90;;;;;;4992350;28;20468;-80
2023/01/26 06:46:36;;;;;;;25.73;12.43;;;8.90;56.90;;;;;;4989518;28;20481;-80
2023/01/26 06:49:04;;;;;;;22.60;11.10;;;8.90;56.00;;;;;;4992651;28;20468;-80
2023/01/26 06:51:45;;;;;;;23.20;10.83;;;8.80;56.00;;;;;;4993275;28;20478;-79
2023/01/26 06:54:13;;;;;;;27.37;11.80;;;8.90;56.40;;;;;;4992915;28;20480;-81
2023/01/26 06:56:42;;;;;;;13.53;7.70;;;8.90;58.30;;;;;;4993423;28;20488;-79
2023/01/26 06:59:10;;;;;;;14.80;8.40;;;9.40;58.70;;;;;;4992253;28;20473;-79
2023/01/26 07:01:41;;;;;;;16.27;8.73;;;9.80;58.10;;;;;;4995138;28;20453;-80
2023/01/26 07:04:09;;;;;;;14.53;8.33;;;10.00;57.00;;;;;;4993590;28;20469;-81
2023/01/26 07:06:37;;;;;;;14.83;8.23;;;10.20;56.70;;;;;;4989864;28;20468;-79
2023/01/26 07:09:06;;;;;;;13.20;7.53;;;10.30;56.40;;;;;;4994481;28;20450;-80
2023/01/26 07:11:34;;;;;;;13.53;7.83;;;10.40;56.20;;;;;;4992401;28;20474;-80
2023/01/26 07:14:03;;;;;;;21.47;9.97;;;10.50;56.00;;;;;;4996065;28;20446;-81
2023/01/26 07:16:30;;;;;;;12.13;7.50;;;10.60;55.80;;;;;;4992414;28;20449;-79
2023/01/26 07:19:00;;;;;;;13.30;8.27;;;10.60;55.70;;;;;;4988402;28;20473;-80
2023/01/26 07:21:28;;;;;;;12.40;7.87;;;10.70;55.60;;;;;;4996735;28;20469;-79
2023/01/26 07:23:57;;;;;;;13.57;8.10;;;10.70;55.40;;;;;;4996258;28;20452;-80
2023/01/26 07:26:26;;;;;;;15.23;7.80;;;10.80;55.40;;;;;;4992795;28;20473;-79
2023/01/26 07:28:55;;;;;;;13.37;7.83;;;10.80;55.30;;;;;;4993311;28;20433;-80
2023/01/26 07:31:22;;;;;;;13.90;8.10;;;10.80;55.20;;;;;;4989661;28;20461;-80
2023/01/26 07:33:51;;;;;;;14.00;8.00;;;10.90;55.10;;;;;;4989641;28;20464;-81
2023/01/26 07:36:19;;;;;;;15.00;7.80;;;10.90;55.00;;;;;;4989059;28;20441;-80
2023/01/26 07:38:47;;;;;;;15.83;7.07;;;10.90;55.00;;;;;;4986769;28;20471;-80
2023/01/26 07:41:15;;;;;;;11.63;6.93;;;10.90;54.90;;;;;;4989965;28;20466;-80
2023/01/26 07:43:44;;;;;;;10.97;7.13;;;10.90;54.80;;;;;;4988988;28;20982;-80
2023/01/26 07:46:12;;;;;;;13.37;7.10;;;10.90;54.80;;;;;;4993734;28;20445;-79
2023/01/26 07:48:40;;;;;;;10.93;6.50;;;11.00;54.80;;;;;;4989110;28;20469;-80
2023/01/26 07:51:09;;;;;;;13.90;7.67;;;11.00;54.70;;;;;;4983504;28;20464;-79
2023/01/26 07:53:38;;;;;;;12.20;7.53;;;11.00;55.30;;;;;;4993024;28;20438;-78
2023/01/26 07:56:10;;;;;;;10.03;6.70;;;11.00;54.60;;;;;;4993177;28;20465;-78
2023/01/26 07:58:37;;;;;;;9.97;6.60;;;11.10;54.70;;;;;;4993919;28;20438;-80
2023/01/26 08:01:09;;;;;;;10.30;6.83;;;11.10;54.50;;;;;;4997136;28;20465;-80
2023/01/26 08:03:37;;;;;;;8.93;6.20;;;11.10;54.60;;;;;;4993931;28;20440;-79
2023/01/26 08:06:05;;;;;;;8.80;6.03;;;11.10;54.60;;;;;;4991857;28;20465;-80
2023/01/26 08:08:34;;;;;;;10.13;6.80;;;11.10;54.50;;;;;;4993517;28;20525;-79
2023/01/26 08:11:02;;;;;;;14.30;6.57;;;11.10;54.50;;;;;;4989371;28;20472;-80
2023/01/26 08:13:30;;;;;;;9.60;6.70;;;11.20;54.50;;;;;;4997654;28;20950;-80
2023/01/26 08:16:03;;;;;;;10.63;6.80;;;11.20;54.40;;;;;;4990190;28;20457;-80
2023/01/26 08:18:32;;;;;;;13.40;7.30;;;11.20;54.40;;;;;;4997228;28;20441;-80
2023/01/26 08:21:00;;;;;;;11.70;7.73;;;11.20;54.50;;;;;;4997367;28;20487;-80
2023/01/26 08:23:28;;;;;;;11.87;7.40;;;11.20;54.50;;;;;;4994080;28;20451;-80
2023/01/26 08:26:00;;;;;;;12.03;7.60;;;11.20;54.50;;;;;;4996615;28;20476;-80
2023/01/26 08:28:28;;;;;;;11.10;7.17;;;11.20;54.40;;;;;;4995816;28;20506;-80
2023/01/26 08:30:55;;;;;;;9.83;7.30;;;11.30;54.50;;;;;;4990571;28;20460;-80
2023/01/26 08:33:24;;;;;;;11.50;7.00;;;11.30;54.50;;;;;;4995009;28;20480;-81
2023/01/26 08:35:53;;;;;;;10.00;7.00;;;11.30;54.50;;;;;;4988193;28;20457;-80
2023/01/26 08:38:21;;;;;;;11.60;6.93;;;11.30;54.40;;;;;;4996714;28;20442;-80
2023/01/26 08:40:51;;;;;;;8.80;6.63;;;11.30;54.50;;;;;;4990280;28;20485;-80
2023/01/26 08:43:20;;;;;;;10.90;7.10;;;11.30;54.50;;;;;;4996641;28;20446;-80
2023/01/26 08:45:47;;;;;;;9.43;6.40;;;11.40;54.60;;;;;;4991080;28;20446;-80
2023/01/26 08:48:15;;;;;;;9.87;6.70;;;11.40;54.60;;;;;;4991979;28;20519;-80
2023/01/26 08:50:44;;;;;;;10.10;6.50;;;11.40;54.50;;;;;;4993764;28;20470;-79
2023/01/26 08:53:13;;;;;;;9.57;6.10;;;11.40;54.40;;;;;;4994649;28;20453;-80
2023/01/26 08:55:41;;;;;;;12.60;7.50;;;11.50;54.50;;;;;;4991647;28;20469;-80
2023/01/26 08:58:09;;;;;;;8.80;6.20;;;11.50;54.60;;;;;;4993941;28;20434;-80
2023/01/26 09:00:37;;;;;;;8.80;5.90;;;11.60;54.50;;;;;;4986474;28;20477;-80
2023/01/26 09:03:05;;;;;;;10.37;6.43;;;11.60;54.40;;;;;;4986697;28;20437;-80
2023/01/26 09:05:34;;;;;;;10.00;6.67;;;11.70;54.50;;;;;;4988815;28;20457;-79
2023/01/26 09:08:02;;;;;;;8.20;5.50;;;11.70;54.40;;;;;;4987818;28;20452;-80
2023/01/26 09:10:32;;;;;;;11.80;6.10;;;11.70;54.40;;;;;;4991087;28;20478;-80
2023/01/26 09:12:59;;;;;;;12.40;6.73;;;11.70;54.40;;;;;;4996737;28;20445;-81
2023/01/26 09:15:28;;;;;;;7.60;5.70;;;11.70;54.30;;;;;;4997268;28;20456;-80
2023/01/26 09:17:55;;;;;;;8.50;6.17;;;11.80;55.00;;;;;;4997212;28;20442;-81
2023/01/26 09:20:27;;;;;;;14.13;6.17;;;11.80;54.40;;;;;;4994469;28;20469;-81
2023/01/26 09:22:55;;;;;;;8.63;5.97;;;11.90;54.50;;;;;;4997313;28;20449;-81
2023/01/26 09:25:23;;;;;;;7.80;6.00;;;11.90;54.30;;;;;;4994706;28;20449;-81
2023/01/26 09:27:52;;;;;;;8.60;5.37;;;12.00;54.40;;;;;;4993832;28;20445;-81
2023/01/26 09:30:20;;;;;;;7.70;6.00;;;12.10;54.50;;;;;;4995626;28;20553;-81
2023/01/26 09:32:49;;;;;;;10.63;6.70;;;12.10;54.40;;;;;;4998256;28;20515;-81
2023/01/26 09:35:17;;;;;;;8.80;5.67;;;12.20;54.50;;;;;;4998896;28;20446;-81
2023/01/26 09:37:46;;;;;;;7.83;5.90;;;12.40;54.50;;;;;;4993991;28;20497;-80
2023/01/26 09:40:16;;;;;;;8.47;6.03;;;12.50;54.30;;;;;;4997407;28;20477;-82
2023/01/26 09:43:00;;;;;;;9.90;5.93;;;12.60;54.20;;;;;;4992427;28;20457;-81
2023/01/26 09:45:31;;;;;;;9.80;6.03;;;12.60;54.10;;;;;;4989359;28;20476;-81
2023/01/26 09:48:08;;;;;;;7.20;5.60;;;12.70;54.00;;;;;;4986588;28;20443;-83
2023/01/26 09:50:37;;;;;;;7.33;5.50;;;12.70;53.90;;;;;;4995613;28;20461;-80
2023/01/26 09:53:07;;;;;;;7.67;5.60;;;12.70;53.90;;;;;;4987197;28;20982;-80
2023/01/26 09:55:35;;;;;;;7.20;5.40;;;12.80;54.00;;;;;;4989248;28;20438;-80
2023/01/26 09:58:04;;;;;;;7.00;5.50;;;12.70;53.90;;;;;;4989221;28;20441;-79
2023/01/26 10:00:35;;;;;;;7.20;5.47;;;12.70;53.90;;;;;;4988974;28;20481;-80
2023/01/26 10:03:13;;;;;;;8.73;5.80;;;12.80;54.10;;;;;;4994896;28;20529;-80
2023/01/26 10:05:42;;;;;;;7.27;5.30;;;12.80;54.00;;;;;;4982858;28;20447;-79
2023/01/26 10:08:11;;;;;;;8.87;5.63;;;12.80;54.00;;;;;;4998689;28;20481;-80
2023/01/26 10:10:41;;;;;;;7.13;5.80;;;12.80;54.00;;;;;;4994178;28;20925;-81
2023/01/26 10:13:09;;;;;;;6.87;5.40;;;12.90;54.20;;;;;;4989195;28;20930;-78
2023/01/26 10:15:41;;;;;;;7.03;5.27;;;12.90;54.10;;;;;;4996912;28;20451;-80
2023/01/26 10:18:12;;;;;;;6.87;4.90;;;12.90;54.20;;;;;;4999605;28;20433;-79
2023/01/26 10:20:42;;;;;;;6.73;5.40;;;13.00;54.10;;;;;;4996618;28;20477;-80
2023/01/26 10:23:12;;;;;;;6.90;5.10;;;13.00;54.20;;;;;;4987464;28;20445;-79
2023/01/26 10:25:41;;;;;;;7.40;5.53;;;13.00;54.10;;;;;;4990578;28;20476;-79
2023/01/26 10:28:13;;;;;;;8.20;5.17;;;13.10;54.30;;;;;;4995949;28;20451;-79
2023/01/26 10:30:43;;;;;;;9.13;5.57;;;13.20;54.20;;;;;;4993251;28;20461;-78
2023/01/26 10:33:14;;;;;;;9.27;5.53;;;13.20;53.80;;;;;;4993874;28;20528;-78
2023/01/26 10:35:43;;;;;;;7.70;5.17;;;13.20;53.70;;;;;;4992665;28;20445;-80
2023/01/26 10:38:27;;;;;;;9.73;6.10;;;13.20;53.80;;;;;;4993549;28;20445;-79
2023/01/26 10:40:55;;;;;;;13.20;5.47;;;13.20;53.70;;;;;;4993729;28;20484;-80
2023/01/26 10:43:23;;;;;;;17.80;6.00;;;13.20;55.50;;;;;;4994691;28;20445;-81
2023/01/26 10:45:52;;;;;;;8.57;4.83;;;13.30;55.70;;;;;;4988118;28;20455;-81
2023/01/26 10:48:23;;;;;;;8.73;5.13;;;13.40;55.50;;;;;;4992131;28;20458;-81
2023/01/26 10:50:50;;;;;;;10.17;5.50;;;13.50;55.60;;;;;;4995032;28;20470;-81
2023/01/26 10:53:22;;;;;;;14.77;5.60;;;13.50;55.80;;;;;;4995229;28;20446;-80
2023/01/26 10:55:59;;;;;;;9.50;5.37;;;13.50;55.90;;;;;;4987382;28;20466;-81
2023/01/26 10:58:52;;;;;;;9.33;4.90;;;13.70;56.20;;;;;;4988750;28;20463;-81
2023/01/26 11:01:26;;;;;;;7.63;5.47;;;13.80;55.90;;;;;;4985572;28;20480;-83
2023/01/26 11:04:01;;;;;;;8.70;5.80;;;14.00;56.00;;;;;;4991396;28;20484;-80
2023/01/26 11:06:29;;;;;;;9.43;5.23;;;14.20;55.80;;;;;;4989131;28;20468;-82
2023/01/26 11:09:09;;;;;;;9.43;5.17;;;14.20;55.50;;;;;;4995342;28;20457;-81
2023/01/26 11:11:37;;;;;;;7.93;5.43;;;14.40;55.30;;;;;;4988852;28;20471;-83
2023/01/26 11:14:12;;;;;;;7.60;5.10;;;14.50;55.10;;;;;;4994580;28;20442;-80
2023/01/26 11:16:44;;;;;;;6.77;4.53;;;14.60;55.10;;;;;;4991970;28;20449;-80
2023/01/26 11:19:13;;;;;;;17.67;5.13;;;14.80;55.10;;;;;;4990481;28;20429;-82
2023/01/26 11:21:42;;;;;;;11.57;5.53;;;15.00;55.00;;;;;;4997840;28;20511;-82
2023/01/26 11:24:12;;;;;;;6.07;4.60;;;15.30;55.00;;;;;;4998306;28;20429;-82
2023/01/26 11:27:16;;;;;;;6.80;4.53;;;15.70;54.80;;;;;;4989531;28;20464;-80
2023/01/26 11:29:50;;;;;;;7.73;4.67;;;15.90;54.00;;;;;;4997602;28;20833;-82
2023/01/26 11:32:22;;;;;;;7.53;4.67;;;16.10;54.20;;;;;;4998514;28;20445;-82
2023/01/26 11:34:57;;;;;;;9.47;4.53;;;16.30;53.60;;;;;;5001252;28;20451;-82
2023/01/26 11:37:39;;;;;;;10.70;4.60;;;16.60;54.10;;;;;;5000785;28;20441;-82
2023/01/26 11:40:27;;;;;;;13.53;5.37;;;16.80;53.30;;;;;;5001295;28;20460;-82
2023/01/26 11:43:07;;;;;;;10.50;5.30;;;16.80;53.60;;;;;;5001229;28;20473;-82
2023/01/26 11:45:38;;;;;;;6.53;4.77;;;16.70;52.80;;;;;;5001062;28;20449;-82
2023/01/26 11:48:14;;;;;;;6.07;4.60;;;16.60;53.10;;;;;;5001165;28;20437;-81
2023/01/26 11:50:44;;;;;;;7.83;4.70;;;16.50;53.10;;;;;;5001056;28;20453;-82
2023/01/26 11:53:22;;;;;;;6.93;4.20;;;16.50;53.40;;;;;;5000893;28;20453;-82
2023/01/26 11:56:00;;;;;;;7.50;4.50;;;16.60;53.70;;;;;;5001473;28;20468;-82
2023/01/26 11:58:31;;;;;;;10.80;4.73;;;16.60;53.20;;;;;;5001480;28;20453;-82
2023/01/26 12:01:00;;;;;;;13.73;4.10;;;16.60;53.40;;;;;;5000806;28;20473;-83
2023/01/26 12:03:33;;;;;;;7.00;5.23;;;16.70;53.50;;;;;;5001510;28;20453;-81
2023/01/26 12:06:02;;;;;;;5.20;4.60;;;16.80;53.80;;;;;;4995946;28;20470;-82
2023/01/26 12:08:37;;;;;;;9.97;4.57;;;17.00;53.80;;;;;;5001040;28;20437;-82
2023/01/26 12:13:50;;;;;;;7.23;4.20;;;17.40;53.10;;;;;;5000561;28;20445;-80
2023/01/26 12:16:20;;;;;;;5.33;4.20;;;17.50;52.90;;;;;;5001007;28;20454;-82
2023/01/26 12:18:54;;;;;;;6.03;4.40;;;17.60;52.90;;;;;;5001077;28;20457;-82
2023/01/26 12:21:38;;;;;;;9.60;5.00;;;17.50;52.40;;;;;;5000633;28;20522;-81
2023/01/26 12:24:06;;;;;;;11.13;4.40;;;17.40;52.50;;;;;;5000379;28;20451;-78
2023/01/26 12:26:47;;;;;;;6.50;4.00;;;17.40;52.90;;;;;;5000835;28;20475;-79
2023/01/26 12:29:17;;;;;;;7.57;4.47;;;17.40;53.10;;;;;;4999932;28;20445;-80
2023/01/26 12:31:47;;;;;;;7.83;4.13;;;17.50;53.10;;;;;;5001031;28;20453;-81
2023/01/26 12:34:17;;;;;;;9.27;4.87;;;17.50;52.80;;;;;;5000410;28;20460;-82
2023/01/26 12:36:47;;;;;;;5.67;4.40;;;17.50;53.00;;;;;;5000372;28;20434;-81
2023/01/26 12:39:18;;;;;;;6.13;4.23;;;17.40;52.90;;;;;;5000367;28;20449;-81
2023/01/26 12:41:59;;;;;;;7.33;4.73;;;17.30;53.10;;;;;;4999701;28;20485;-80
2023/01/26 12:44:33;;;;;;;6.20;4.10;;;17.20;53.00;;;;;;4998400;28;20460;-78
2023/01/26 12:47:05;;;;;;;9.23;4.50;;;17.20;53.20;;;;;;4999325;28;20452;-81
2023/01/26 12:49:37;;;;;;;6.63;4.00;;;17.10;53.30;;;;;;4998752;28;20479;-80
2023/01/26 12:52:06;;;;;;;7.00;4.43;;;17.00;53.50;;;;;;4998538;28;20437;-81
2023/01/26 12:54:37;;;;;;;6.83;4.03;;;17.20;54.50;;;;;;4998363;28;20442;-80
2023/01/26 12:57:05;;;;;;;7.60;4.60;;;17.40;53.60;;;;;;4998600;28;20480;-80
2023/01/26 12:59:35;;;;;;;10.37;4.77;;;17.20;53.10;;;;;;4998522;28;20468;-80
2023/01/26 13:02:26;;;;;;;7.27;4.17;;;17.10;53.30;;;;;;4998801;28;20477;-79
2023/01/26 13:04:56;;;;;;;7.20;4.20;;;17.10;53.80;;;;;;4997067;28;20953;-79
2023/01/26 13:07:32;;;;;;;5.73;4.30;;;17.10;53.70;;;;;;4992457;28;20481;-80
2023/01/26 13:10:24;;;;;;;10.23;3.73;;;17.10;53.60;;;;;;4996721;28;20471;-80
2023/01/26 13:12:53;;;;;;;7.43;4.07;;;16.90;53.50;;;;;;4997598;28;20441;-82
2023/01/26 13:15:22;;;;;;;8.17;4.20;;;16.80;53.90;;;;;;4996573;28;20453;-81
2023/01/26 13:17:52;;;;;;;4.20;3.63;;;16.70;54.00;;;;;;4996207;28;20961;-83
2023/01/26 13:20:26;;;;;;;5.13;4.13;;;16.60;54.30;;;;;;4997372;28;20477;-82
2023/01/26 13:22:54;;;;;;;6.50;3.90;;;16.50;54.30;;;;;;4996300;28;20481;-81
2023/01/26 13:25:30;;;;;;;11.30;4.60;;;16.50;54.50;;;;;;4996098;28;20460;-80
2023/01/26 13:27:58;;;;;;;5.60;3.47;;;16.40;54.60;;;;;;4995753;28;20441;-80
2023/01/26 13:30:45;;;;;;;5.83;4.00;;;16.40;54.70;;;;;;4996718;28;20465;-82
2023/01/26 13:33:15;;;;;;;6.43;3.63;;;16.30;54.80;;;;;;4995616;28;20436;-82
2023/01/26 13:35:45;;;;;;;5.10;3.70;;;16.40;55.00;;;;;;4996177;28;20452;-80
2023/01/26 13:38:20;;;;;;;3.90;3.27;;;16.40;54.90;;;;;;4995870;28;20450;-83
2023/01/26 13:40:49;;;;;;;7.27;4.17;;;16.30;54.80;;;;;;4995561;28;20473;-80
2023/01/26 13:43:21;;;;;;;4.77;3.80;;;16.30;55.00;;;;;;4995618;28;20536;-80
2023/01/26 13:46:09;;;;;;;6.03;4.00;;;16.30;55.00;;;;;;4995686;28;20449;-80